Time;durP1;ratioP1;P1;durP2;ratioP2;P2;SDS_P1;SDS_P2;PMS_P1;PMS_P2;Temp;Humidity;BMP_temperature;BMP_pressure;BME280_temperature;BME280_humidity;BME280_pressure;Samples;Min_cycle;Max_cycle;Signal;HPM_P1;HPM_P2
2021/04/14 00:01:39;;;;;;;23.25;21.30;;;;;;;;;;5075479;28;20199;-72
2021/04/14 00:04:06;;;;;;;21.98;20.77;;;;;;;;;;5075619;28;20220;-72
2021/04/14 00:06:34;;;;;;;22.65;21.20;;;;;;;;;;5075177;28;20192;-72
2021/04/14 00:09:01;;;;;;;22.23;20.73;;;;;;;;;;5075318;28;20188;-72
2021/04/14 00:11:28;;;;;;;22.75;21.25;;;;;;;;;;5075337;28;20199;-71
2021/04/14 00:13:55;;;;;;;21.80;20.40;;;;;;;;;;5075588;28;20252;-72
2021/04/14 00:16:23;;;;;;;21.00;19.70;;;;;;;;;;5075457;28;20220;-72
2021/04/14 00:18:50;;;;;;;21.98;20.58;;;;;;;;;;5074288;28;20192;-72
2021/04/14 00:21:19;;;;;;;21.02;19.92;;;;;;;;;;5075066;28;20191;-72
2021/04/14 00:23:47;;;;;;;21.42;20.02;;;;;;;;;;5074968;28;20264;-72
2021/04/14 00:26:15;;;;;;;20.92;19.67;;;;;;;;;;5075295;28;20199;-72
2021/04/14 00:28:42;;;;;;;21.65;20.35;;;;;;;;;;5074949;28;20673;-72
2021/04/14 00:31:10;;;;;;;21.55;20.35;;;;;;;;;;5075188;28;20196;-72
2021/04/14 00:33:37;;;;;;;21.63;20.45;;;;;;;;;;5075143;28;20210;-72
2021/04/14 00:36:04;;;;;;;21.85;20.55;;;;;;;;;;5073900;28;20199;-72
2021/04/14 00:38:31;;;;;;;22.10;20.80;;;;;;;;;;5074788;28;20189;-71
2021/04/14 00:41:01;;;;;;;21.98;20.45;;;;;;;;;;5074704;28;20195;-72
2021/04/14 00:43:30;;;;;;;21.92;20.63;;;;;;;;;;5074617;28;20216;-73
2021/04/14 00:45:57;;;;;;;22.98;21.15;;;;;;;;;;5074645;28;20188;-72
2021/04/14 00:48:24;;;;;;;22.80;21.33;;;;;;;;;;5075092;28;20195;-72
2021/04/14 00:50:51;;;;;;;23.95;22.25;;;;;;;;;;5074550;28;20204;-72
2021/04/14 00:53:19;;;;;;;22.30;20.83;;;;;;;;;;5074428;28;20251;-72
2021/04/14 00:55:46;;;;;;;21.85;20.38;;;;;;;;;;5074261;28;20232;-72
2021/04/14 00:58:13;;;;;;;22.08;20.80;;;;;;;;;;5074403;28;20189;-72
2021/04/14 01:00:41;;;;;;;22.80;21.15;;;;;;;;;;5074603;28;20192;-72
2021/04/14 01:03:13;;;;;;;23.45;21.50;;;;;;;;;;5074171;28;20754;-72
2021/04/14 01:05:40;;;;;;;23.63;22.10;;;;;;;;;;5074591;28;20524;-72
2021/04/14 01:08:07;;;;;;;22.08;20.67;;;;;;;;;;5074453;28;20249;-72
2021/04/14 01:10:34;;;;;;;22.58;21.05;;;;;;;;;;5074409;28;20222;-72
2021/04/14 01:13:01;;;;;;;21.50;20.15;;;;;;;;;;5074417;28;20247;-72
2021/04/14 01:15:31;;;;;;;22.50;21.10;;;;;;;;;;5073966;28;20273;-72
2021/04/14 01:17:58;;;;;;;21.70;20.40;;;;;;;;;;5073306;28;20187;-73
2021/04/14 01:20:25;;;;;;;22.17;20.88;;;;;;;;;;5074256;28;20207;-72
2021/04/14 01:22:53;;;;;;;22.00;20.60;;;;;;;;;;5073954;28;20216;-72
2021/04/14 01:25:22;;;;;;;21.58;20.27;;;;;;;;;;5074232;28;20249;-72
2021/04/14 01:27:49;;;;;;;22.40;20.95;;;;;;;;;;5073965;28;20195;-72
2021/04/14 01:30:18;;;;;;;21.13;19.73;;;;;;;;;;5073831;28;20192;-72
2021/04/14 01:32:45;;;;;;;22.17;20.67;;;;;;;;;;5073792;28;20638;-72
2021/04/14 01:35:13;;;;;;;21.70;20.52;;;;;;;;;;5073787;28;20242;-72
2021/04/14 01:37:41;;;;;;;22.38;20.85;;;;;;;;;;5073677;28;20215;-72
2021/04/14 01:40:10;;;;;;;21.42;19.92;;;;;;;;;;5073816;28;20646;-72
2021/04/14 01:42:37;;;;;;;21.52;20.02;;;;;;;;;;5073945;28;20193;-72
2021/04/14 01:45:04;;;;;;;20.73;19.52;;;;;;;;;;5073631;28;20550;-72
2021/04/14 01:47:31;;;;;;;21.27;20.08;;;;;;;;;;5073778;28;20645;-72
2021/04/14 01:49:58;;;;;;;21.13;19.83;;;;;;;;;;5073852;28;20183;-72
2021/04/14 01:52:25;;;;;;;22.60;21.05;;;;;;;;;;5073860;28;20192;-72
2021/04/14 01:54:51;;;;;;;22.48;21.15;;;;;;;;;;5072391;28;20635;-72
2021/04/14 01:57:19;;;;;;;21.70;20.35;;;;;;;;;;5073606;28;20184;-72
2021/04/14 01:59:46;;;;;;;21.75;20.40;;;;;;;;;;5073432;28;20204;-73
2021/04/14 02:02:13;;;;;;;21.60;20.40;;;;;;;;;;5073742;28;20183;-72
2021/04/14 02:04:40;;;;;;;22.02;20.83;;;;;;;;;;5073670;28;20294;-72
2021/04/14 02:07:07;;;;;;;21.52;20.13;;;;;;;;;;5073609;28;20195;-72
2021/04/14 02:09:34;;;;;;;22.05;20.25;;;;;;;;;;5073650;28;20192;-72
2021/04/14 02:12:01;;;;;;;21.83;20.63;;;;;;;;;;5073340;28;20279;-72
2021/04/14 02:14:28;;;;;;;21.48;20.27;;;;;;;;;;5073280;28;20281;-72
2021/04/14 02:16:55;;;;;;;21.90;20.70;;;;;;;;;;5073465;28;20251;-72
2021/04/14 02:19:22;;;;;;;21.92;20.65;;;;;;;;;;5073538;28;20183;-72
2021/04/14 02:21:50;;;;;;;21.35;20.15;;;;;;;;;;5073566;28;20200;-72
2021/04/14 02:24:17;;;;;;;20.92;19.58;;;;;;;;;;5073159;28;20703;-72
2021/04/14 02:26:43;;;;;;;21.02;19.90;;;;;;;;;;5073346;28;20188;-72
2021/04/14 02:29:10;;;;;;;21.38;19.83;;;;;;;;;;5073346;28;20188;-73
2021/04/14 02:31:39;;;;;;;21.60;20.20;;;;;;;;;;5077527;28;20195;-72
2021/04/14 02:34:07;;;;;;;22.77;21.25;;;;;;;;;;5077453;28;20538;-72
2021/04/14 02:36:34;;;;;;;21.65;20.23;;;;;;;;;;5077435;28;20253;-72
2021/04/14 02:39:01;;;;;;;20.95;19.75;;;;;;;;;;5076999;28;20199;-72
2021/04/14 02:41:28;;;;;;;20.95;19.80;;;;;;;;;;5077395;28;20188;-72
2021/04/14 02:43:55;;;;;;;22.17;20.88;;;;;;;;;;5077255;28;20249;-72
2021/04/14 02:46:22;;;;;;;21.42;20.23;;;;;;;;;;5076936;28;20639;-72
2021/04/14 02:48:51;;;;;;;21.20;20.00;;;;;;;;;;5076825;28;20215;-72
2021/04/14 02:51:18;;;;;;;22.17;20.73;;;;;;;;;;5076869;28;20695;-72
2021/04/14 02:53:44;;;;;;;22.23;20.70;;;;;;;;;;5076795;28;20183;-72
2021/04/14 02:56:11;;;;;;;21.63;20.23;;;;;;;;;;5076529;28;20240;-73
2021/04/14 02:58:38;;;;;;;22.58;21.00;;;;;;;;;;5076545;28;20598;-72
2021/04/14 03:01:05;;;;;;;21.15;19.95;;;;;;;;;;5076640;28;20249;-72
2021/04/14 03:03:32;;;;;;;22.45;21.05;;;;;;;;;;5076518;28;20223;-72
2021/04/14 03:06:00;;;;;;;22.02;20.73;;;;;;;;;;5075743;28;20191;-73
2021/04/14 03:08:27;;;;;;;22.65;21.02;;;;;;;;;;5076616;28;20207;-72
2021/04/14 03:10:54;;;;;;;21.45;20.08;;;;;;;;;;5076778;28;20197;-72
2021/04/14 03:13:21;;;;;;;23.60;22.20;;;;;;;;;;5076392;28;20195;-72
2021/04/14 03:15:48;;;;;;;22.63;21.13;;;;;;;;;;5076283;28;20243;-72
2021/04/14 03:18:16;;;;;;;21.60;20.30;;;;;;;;;;5076280;28;20638;-72
2021/04/14 03:20:44;;;;;;;22.00;20.67;;;;;;;;;;5076596;28;20191;-72
2021/04/14 03:23:13;;;;;;;22.35;21.05;;;;;;;;;;5076409;28;20215;-72
2021/04/14 03:25:40;;;;;;;21.98;20.67;;;;;;;;;;5076486;28;20197;-72
2021/04/14 03:28:07;;;;;;;22.52;20.90;;;;;;;;;;5076262;28;20565;-72
2021/04/14 03:30:34;;;;;;;22.10;20.90;;;;;;;;;;5076467;28;20529;-72
2021/04/14 03:33:01;;;;;;;23.58;21.80;;;;;;;;;;5076089;28;20192;-72
2021/04/14 03:35:30;;;;;;;23.45;21.70;;;;;;;;;;5076356;28;20189;-72
2021/04/14 03:37:57;;;;;;;23.02;21.42;;;;;;;;;;5076283;28;20192;-72
2021/04/14 03:40:25;;;;;;;22.90;21.55;;;;;;;;;;5076200;28;20187;-72
2021/04/14 03:42:54;;;;;;;24.00;22.05;;;;;;;;;;5074158;28;20189;-72
2021/04/14 03:45:26;;;;;;;23.60;22.13;;;;;;;;;;5076126;28;20199;-72
2021/04/14 03:47:54;;;;;;;23.65;21.75;;;;;;;;;;5076044;28;20188;-72
2021/04/14 03:50:21;;;;;;;24.30;22.67;;;;;;;;;;5076012;28;20229;-72
2021/04/14 03:52:49;;;;;;;23.60;21.95;;;;;;;;;;5076011;28;20183;-72
2021/04/14 03:55:16;;;;;;;23.95;21.88;;;;;;;;;;5075515;28;20235;-72
2021/04/14 03:57:44;;;;;;;23.90;22.20;;;;;;;;;;5075780;28;20188;-72
2021/04/14 04:00:12;;;;;;;23.35;21.77;;;;;;;;;;5075855;28;20195;-72
2021/04/14 04:02:39;;;;;;;23.63;22.15;;;;;;;;;;5074604;28;20200;-72
2021/04/14 04:05:07;;;;;;;24.00;22.42;;;;;;;;;;5075474;28;20222;-72
2021/04/14 04:07:34;;;;;;;25.08;23.20;;;;;;;;;;5075578;28;20549;-72
2021/04/14 04:10:00;;;;;;;24.25;22.75;;;;;;;;;;5075558;28;20607;-72
2021/04/14 04:12:27;;;;;;;24.92;23.08;;;;;;;;;;5075385;28;20549;-72
2021/04/14 04:14:57;;;;;;;24.50;23.10;;;;;;;;;;5075215;28;20194;-72
2021/04/14 04:17:24;;;;;;;24.30;22.80;;;;;;;;;;5075462;28;20216;-72
2021/04/14 04:19:52;;;;;;;24.05;22.38;;;;;;;;;;5075311;28;20197;-72
2021/04/14 04:22:20;;;;;;;23.80;22.20;;;;;;;;;;5075239;28;20282;-72
2021/04/14 04:24:47;;;;;;;23.45;22.05;;;;;;;;;;5075044;28;20212;-72
2021/04/14 04:27:14;;;;;;;23.15;21.65;;;;;;;;;;5075243;28;20188;-72
2021/04/14 04:29:41;;;;;;;24.05;22.55;;;;;;;;;;5074980;28;20188;-72
2021/04/14 04:32:09;;;;;;;24.48;22.77;;;;;;;;;;5074984;28;20195;-72
2021/04/14 04:34:36;;;;;;;25.05;23.58;;;;;;;;;;5075250;28;20192;-72
2021/04/14 04:37:04;;;;;;;25.42;23.60;;;;;;;;;;5075047;28;20199;-72
2021/04/14 04:39:31;;;;;;;24.77;23.25;;;;;;;;;;5074820;28;20191;-72
2021/04/14 04:41:58;;;;;;;25.98;24.17;;;;;;;;;;5074742;28;20740;-72
2021/04/14 04:44:25;;;;;;;25.27;23.63;;;;;;;;;;5073555;28;20244;-72
2021/04/14 04:46:51;;;;;;;24.60;23.10;;;;;;;;;;5073700;28;20282;-72
2021/04/14 04:49:19;;;;;;;24.40;22.67;;;;;;;;;;5074579;28;20630;-72
2021/04/14 04:51:46;;;;;;;26.98;25.02;;;;;;;;;;5074560;28;20196;-72
2021/04/14 04:54:13;;;;;;;26.15;24.35;;;;;;;;;;5074261;28;20195;-72
2021/04/14 04:56:40;;;;;;;26.55;24.65;;;;;;;;;;5074237;28;20200;-71
2021/04/14 04:59:07;;;;;;;24.63;23.02;;;;;;;;;;5074680;28;20226;-71
2021/04/14 05:01:35;;;;;;;26.17;24.08;;;;;;;;;;5074654;28;20237;-71
2021/04/14 05:04:02;;;;;;;26.20;24.40;;;;;;;;;;5074425;28;20216;-72
2021/04/14 05:06:30;;;;;;;26.15;24.55;;;;;;;;;;5074512;28;20192;-73
2021/04/14 05:08:57;;;;;;;25.38;23.80;;;;;;;;;;5074511;28;20233;-71
2021/04/14 05:11:23;;;;;;;25.13;23.52;;;;;;;;;;5074119;28;20187;-71
2021/04/14 05:13:50;;;;;;;26.13;23.90;;;;;;;;;;5074075;28;20195;-71
2021/04/14 05:16:17;;;;;;;25.33;23.20;;;;;;;;;;5074358;28;20219;-72
2021/04/14 05:18:44;;;;;;;24.95;23.13;;;;;;;;;;5073957;28;20188;-71
2021/04/14 05:21:11;;;;;;;25.13;23.50;;;;;;;;;;5073987;28;20191;-71
2021/04/14 05:23:39;;;;;;;24.17;22.67;;;;;;;;;;5073835;28;20220;-71
2021/04/14 05:26:06;;;;;;;22.90;21.30;;;;;;;;;;5073888;28;20207;-71
2021/04/14 05:28:33;;;;;;;23.80;22.10;;;;;;;;;;5074000;28;20198;-71
2021/04/14 05:31:00;;;;;;;24.23;22.55;;;;;;;;;;5073823;28;20236;-71
2021/04/14 05:33:27;;;;;;;24.42;22.60;;;;;;;;;;5073849;28;20188;-71
2021/04/14 05:35:54;;;;;;;24.75;23.15;;;;;;;;;;5073726;28;20188;-71
2021/04/14 05:38:21;;;;;;;23.65;22.23;;;;;;;;;;5072788;28;20191;-71
2021/04/14 05:40:49;;;;;;;25.50;23.83;;;;;;;;;;5073739;28;20572;-71
2021/04/14 05:43:18;;;;;;;24.58;22.92;;;;;;;;;;5073908;28;20219;-71
2021/04/14 05:45:46;;;;;;;24.35;22.63;;;;;;;;;;5073638;28;20220;-71
2021/04/14 05:48:13;;;;;;;25.13;23.63;;;;;;;;;;5073258;28;20211;-71
2021/04/14 05:50:40;;;;;;;24.70;23.10;;;;;;;;;;5073913;28;20195;-71
2021/04/14 05:53:07;;;;;;;24.90;23.05;;;;;;;;;;5073751;28;20187;-71
2021/04/14 05:55:34;;;;;;;25.92;23.88;;;;;;;;;;5072086;28;20721;-71
2021/04/14 05:58:02;;;;;;;24.88;23.23;;;;;;;;;;5072163;28;20219;-71
2021/04/14 06:00:29;;;;;;;24.75;23.00;;;;;;;;;;5073240;28;20188;-70
2021/04/14 06:02:56;;;;;;;27.52;25.38;;;;;;;;;;5073501;28;20305;-71
2021/04/14 06:05:23;;;;;;;28.65;26.42;;;;;;;;;;5073631;28;20334;-71
2021/04/14 06:07:50;;;;;;;27.58;25.65;;;;;;;;;;5073715;28;20654;-71
2021/04/14 06:10:19;;;;;;;26.58;24.77;;;;;;;;;;5073350;28;20653;-71
2021/04/14 06:12:46;;;;;;;26.25;24.17;;;;;;;;;;5073361;28;20241;-71
2021/04/14 06:15:17;;;;;;;25.73;23.85;;;;;;;;;;5073576;28;20663;-71
2021/04/14 06:17:44;;;;;;;26.00;24.25;;;;;;;;;;5073226;28;20193;-71
2021/04/14 06:20:12;;;;;;;26.95;24.80;;;;;;;;;;5073350;28;20188;-71
2021/04/14 06:22:39;;;;;;;26.50;24.80;;;;;;;;;;5073523;28;20195;-71
2021/04/14 06:25:07;;;;;;;27.10;25.50;;;;;;;;;;5073127;28;20269;-71
2021/04/14 06:27:37;;;;;;;28.95;26.77;;;;;;;;;;5073047;28;20641;-71
2021/04/14 06:30:05;;;;;;;27.20;25.50;;;;;;;;;;5072837;28;20662;-71
2021/04/14 06:32:33;;;;;;;27.80;25.80;;;;;;;;;;5073511;28;20183;-71
2021/04/14 06:35:00;;;;;;;27.30;25.38;;;;;;;;;;5073103;28;20529;-71
2021/04/14 06:37:27;;;;;;;27.08;25.20;;;;;;;;;;5073130;28;20195;-71
2021/04/14 06:40:12;;;;;;;26.17;24.38;;;;;;;;;;5073409;28;20188;-71
2021/04/14 06:42:49;;;;;;;27.63;25.65;;;;;;;;;;5072752;28;20625;-71
2021/04/14 06:45:19;;;;;;;27.45;25.55;;;;;;;;;;5072200;28;20215;-72
2021/04/14 06:48:08;;;;;;;29.35;26.45;;;;;;;;;;5073212;28;20321;-72
2021/04/14 06:50:38;;;;;;;27.25;25.10;;;;;;;;;;5072988;28;20192;-71
2021/04/14 06:53:18;;;;;;;27.13;25.23;;;;;;;;;;5073058;28;20191;-71
2021/04/14 06:55:47;;;;;;;28.50;26.00;;;;;;;;;;5071581;28;20231;-72
2021/04/14 06:58:16;;;;;;;28.40;26.17;;;;;;;;;;5073263;28;20202;-72
2021/04/14 07:00:44;;;;;;;28.05;25.88;;;;;;;;;;5073160;28;20271;-71
2021/04/14 07:03:13;;;;;;;28.10;26.20;;;;;;;;;;5072717;28;20191;-72
2021/04/14 07:05:41;;;;;;;28.48;26.40;;;;;;;;;;5072858;28;20192;-71
2021/04/14 07:08:10;;;;;;;27.95;26.15;;;;;;;;;;5072780;28;20230;-71
2021/04/14 07:10:39;;;;;;;28.83;26.42;;;;;;;;;;5073073;28;20527;-72
2021/04/14 07:13:07;;;;;;;29.48;26.92;;;;;;;;;;5073191;28;20196;-71
2021/04/14 07:15:35;;;;;;;28.15;25.73;;;;;;;;;;5071549;28;20274;-71
2021/04/14 07:18:06;;;;;;;27.85;25.58;;;;;;;;;;5074735;28;20597;-71
2021/04/14 07:20:36;;;;;;;29.23;27.15;;;;;;;;;;5075408;28;20188;-72
2021/04/14 07:23:10;;;;;;;28.38;26.27;;;;;;;;;;5075248;28;20207;-71
2021/04/14 07:25:40;;;;;;;28.23;26.10;;;;;;;;;;5076174;28;20283;-71
2021/04/14 07:28:14;;;;;;;27.00;25.08;;;;;;;;;;5075973;28;20195;-71
2021/04/14 07:30:42;;;;;;;27.17;25.17;;;;;;;;;;5076471;28;20191;-71
2021/04/14 07:33:14;;;;;;;27.67;25.13;;;;;;;;;;5076182;28;20186;-71
2021/04/14 07:35:48;;;;;;;27.50;25.23;;;;;;;;;;5076003;28;20200;-71
2021/04/14 07:38:21;;;;;;;29.13;27.10;;;;;;;;;;5076209;28;20248;-71
2021/04/14 07:40:50;;;;;;;26.45;24.67;;;;;;;;;;5074965;28;20205;-71
2021/04/14 07:43:26;;;;;;;25.63;23.63;;;;;;;;;;5075771;28;20189;-72
2021/04/14 07:45:53;;;;;;;26.48;24.40;;;;;;;;;;5075788;28;20639;-72
2021/04/14 07:48:22;;;;;;;26.02;24.23;;;;;;;;;;5058228;28;20295;-71
2021/04/14 07:50:52;;;;;;;26.40;24.55;;;;;;;;;;5075957;28;20547;-73
2021/04/14 07:53:20;;;;;;;25.38;23.83;;;;;;;;;;5075977;28;20336;-73
2021/04/14 07:55:47;;;;;;;26.27;24.42;;;;;;;;;;5075586;28;20224;-72
2021/04/14 07:58:16;;;;;;;25.17;23.58;;;;;;;;;;5075463;28;20192;-71
2021/04/14 08:00:43;;;;;;;25.70;23.80;;;;;;;;;;5075966;28;20554;-72
2021/04/14 08:03:11;;;;;;;26.60;24.20;;;;;;;;;;5075430;28;20197;-71
2021/04/14 08:05:38;;;;;;;24.52;22.92;;;;;;;;;;5075842;28;20295;-71
2021/04/14 08:08:15;;;;;;;26.48;24.67;;;;;;;;;;5075832;28;20526;-72
2021/04/14 08:10:42;;;;;;;25.65;23.70;;;;;;;;;;5075403;28;20534;-72
2021/04/14 08:13:13;;;;;;;25.20;23.50;;;;;;;;;;5074411;28;20205;-72
2021/04/14 08:15:43;;;;;;;23.15;21.65;;;;;;;;;;5075087;28;20217;-72
2021/04/14 08:18:13;;;;;;;24.33;22.60;;;;;;;;;;5075199;28;20556;-72
2021/04/14 08:20:41;;;;;;;24.33;22.42;;;;;;;;;;5075832;28;20216;-72
2021/04/14 08:23:09;;;;;;;23.88;22.27;;;;;;;;;;5075444;28;20300;-72
2021/04/14 08:25:37;;;;;;;24.30;22.45;;;;;;;;;;5075384;28;20225;-72
2021/04/14 08:28:05;;;;;;;22.83;21.33;;;;;;;;;;5074833;28;20544;-73
2021/04/14 08:30:32;;;;;;;23.17;21.67;;;;;;;;;;5075326;28;20193;-72
2021/04/14 08:33:00;;;;;;;23.65;21.92;;;;;;;;;;5074723;28;20210;-72
2021/04/14 08:35:29;;;;;;;24.27;22.10;;;;;;;;;;5074877;28;20597;-73
2021/04/14 08:38:04;;;;;;;23.83;22.30;;;;;;;;;;5074762;28;20194;-72
2021/04/14 08:40:31;;;;;;;23.38;21.80;;;;;;;;;;5075155;28;20194;-73
2021/04/14 08:43:06;;;;;;;22.42;20.75;;;;;;;;;;5073891;28;20189;-73
2021/04/14 08:45:35;;;;;;;22.38;20.88;;;;;;;;;;5074954;28;20220;-73
2021/04/14 08:48:06;;;;;;;24.73;22.92;;;;;;;;;;5074920;28;20188;-73
2021/04/14 08:50:35;;;;;;;22.33;20.90;;;;;;;;;;5074513;28;20203;-73
2021/04/14 08:53:03;;;;;;;21.13;19.75;;;;;;;;;;5074824;28;20188;-73
2021/04/14 08:55:31;;;;;;;21.92;20.33;;;;;;;;;;5074322;28;20291;-72
2021/04/14 08:57:59;;;;;;;22.92;21.23;;;;;;;;;;5074466;28;20198;-72
2021/04/14 09:00:27;;;;;;;20.67;19.45;;;;;;;;;;5074653;28;20647;-72
2021/04/14 09:02:58;;;;;;;21.73;20.23;;;;;;;;;;5074637;28;20559;-73
2021/04/14 09:05:25;;;;;;;24.33;22.35;;;;;;;;;;5074527;28;20218;-73
2021/04/14 09:07:54;;;;;;;23.10;21.13;;;;;;;;;;5074477;28;20196;-73
2021/04/14 09:10:30;;;;;;;21.48;19.83;;;;;;;;;;5072710;28;20213;-72
2021/04/14 09:12:57;;;;;;;23.85;21.73;;;;;;;;;;5074155;28;20191;-73
2021/04/14 09:15:25;;;;;;;22.33;20.55;;;;;;;;;;5074203;28;20624;-72
2021/04/14 09:17:59;;;;;;;21.83;20.23;;;;;;;;;;5074453;28;20190;-72
2021/04/14 09:20:27;;;;;;;22.08;20.45;;;;;;;;;;5073970;28;20198;-73
2021/04/14 09:23:02;;;;;;;21.58;20.25;;;;;;;;;;5074228;28;20209;-72
2021/04/14 09:25:31;;;;;;;22.48;21.02;;;;;;;;;;5073527;28;20298;-72
2021/04/14 09:28:00;;;;;;;21.23;20.13;;;;;;;;;;5074037;28;20194;-73
2021/04/14 09:30:33;;;;;;;21.63;20.42;;;;;;;;;;5073814;28;20565;-72
2021/04/14 09:33:12;;;;;;;24.30;22.30;;;;;;;;;;5072973;28;20361;-73
2021/04/14 09:35:59;;;;;;;22.60;21.13;;;;;;;;;;5073805;28;20199;-73
2021/04/14 09:38:32;;;;;;;21.55;20.35;;;;;;;;;;5073750;28;20918;-73
2021/04/14 09:41:14;;;;;;;22.58;21.30;;;;;;;;;;5073149;28;20190;-73
2021/04/14 09:43:42;;;;;;;22.50;21.10;;;;;;;;;;5073872;28;20223;-73
2021/04/14 09:46:11;;;;;;;22.15;20.65;;;;;;;;;;5073864;28;20208;-73
2021/04/14 09:48:39;;;;;;;22.35;20.95;;;;;;;;;;5073646;28;20187;-72
2021/04/14 09:51:16;;;;;;;24.27;22.47;;;;;;;;;;5073941;28;20191;-73
2021/04/14 09:53:43;;;;;;;22.90;21.27;;;;;;;;;;5073801;28;20432;-72
2021/04/14 09:56:13;;;;;;;24.33;22.30;;;;;;;;;;5072095;28;20230;-75
2021/04/14 09:58:45;;;;;;;23.95;22.27;;;;;;;;;;5073242;28;20433;-73
2021/04/14 10:01:16;;;;;;;22.42;20.85;;;;;;;;;;5073801;28;20186;-73
2021/04/14 10:03:45;;;;;;;21.65;20.35;;;;;;;;;;5073508;28;20230;-73
2021/04/14 10:06:14;;;;;;;22.52;21.13;;;;;;;;;;5073492;28;20190;-73
2021/04/14 10:08:42;;;;;;;22.03;20.67;;;;;;;;;;5073827;28;20672;-73
2021/04/14 10:11:10;;;;;;;23.30;21.30;;;;;;;;;;5073697;28;20440;-73
2021/04/14 10:13:37;;;;;;;21.85;20.55;;;;;;;;;;5073827;28;20518;-86
2021/04/14 10:16:05;;;;;;;22.40;21.10;;;;;;;;;;5073155;28;20696;-73
2021/04/14 10:18:36;;;;;;;22.42;20.90;;;;;;;;;;5073370;28;20416;-73
2021/04/14 10:21:20;;;;;;;23.20;21.60;;;;;;;;;;5072489;28;20190;-73
2021/04/14 10:23:55;;;;;;;21.87;20.67;;;;;;;;;;5073563;28;20483;-73
2021/04/14 10:26:22;;;;;;;22.23;20.92;;;;;;;;;;5073401;28;20440;-73
2021/04/14 10:28:49;;;;;;;22.33;20.83;;;;;;;;;;5072095;28;20199;-73
2021/04/14 10:31:20;;;;;;;21.83;20.53;;;;;;;;;;5073492;28;20429;-73
2021/04/14 10:33:48;;;;;;;20.80;19.70;;;;;;;;;;5073510;28;20453;-73
2021/04/14 10:36:16;;;;;;;20.77;19.58;;;;;;;;;;5072858;28;20191;-73
2021/04/14 10:38:44;;;;;;;21.20;19.80;;;;;;;;;;5073477;28;20191;-72
2021/04/14 10:41:15;;;;;;;21.65;20.35;;;;;;;;;;5073379;28;20190;-73
2021/04/14 10:43:42;;;;;;;21.80;20.10;;;;;;;;;;5073305;28;20192;-73
2021/04/14 10:46:12;;;;;;;21.85;20.20;;;;;;;;;;5072964;28;20194;-73
2021/04/14 10:48:41;;;;;;;21.35;20.15;;;;;;;;;;5072982;28;20705;-73
2021/04/14 10:51:10;;;;;;;22.15;20.80;;;;;;;;;;5074723;28;20190;-74
2021/04/14 10:53:40;;;;;;;20.70;19.60;;;;;;;;;;5076823;28;20194;-74
2021/04/14 10:56:12;;;;;;;21.13;19.93;;;;;;;;;;5076558;28;20265;-73
2021/04/14 10:58:39;;;;;;;21.58;20.02;;;;;;;;;;5076064;28;20766;-73
2021/04/14 11:01:10;;;;;;;22.00;20.30;;;;;;;;;;5076556;28;20194;-73
2021/04/14 11:03:38;;;;;;;23.03;21.60;;;;;;;;;;5076917;28;20416;-73
2021/04/14 11:06:06;;;;;;;22.00;20.80;;;;;;;;;;5076200;28;20790;-73
2021/04/14 11:08:35;;;;;;;22.10;20.80;;;;;;;;;;5076463;28;20476;-73
2021/04/14 11:11:02;;;;;;;22.70;21.17;;;;;;;;;;5076501;28;20478;-73
2021/04/14 11:13:30;;;;;;;23.03;21.63;;;;;;;;;;5076372;28;20434;-73
2021/04/14 11:15:58;;;;;;;22.93;21.63;;;;;;;;;;5075080;28;20449;-73
2021/04/14 11:18:31;;;;;;;22.58;20.73;;;;;;;;;;5076656;28;20476;-73
2021/04/14 11:21:01;;;;;;;22.07;20.87;;;;;;;;;;5076620;28;20187;-73
2021/04/14 11:23:29;;;;;;;22.43;20.93;;;;;;;;;;5075273;28;20533;-73
2021/04/14 11:26:05;;;;;;;22.27;20.98;;;;;;;;;;5076149;28;20487;-73
2021/04/14 11:28:40;;;;;;;22.30;20.90;;;;;;;;;;5076407;28;20204;-73
2021/04/14 11:31:07;;;;;;;21.87;20.60;;;;;;;;;;5076376;28;20416;-72
2021/04/14 11:33:35;;;;;;;22.03;20.67;;;;;;;;;;5075205;28;20920;-74
2021/04/14 11:36:03;;;;;;;22.27;20.83;;;;;;;;;;5076326;28;20411;-74
2021/04/14 11:38:31;;;;;;;22.40;20.70;;;;;;;;;;5076282;28;20241;-73
2021/04/14 11:40:58;;;;;;;22.47;21.17;;;;;;;;;;5075922;28;20445;-73
2021/04/14 11:43:32;;;;;;;22.70;20.97;;;;;;;;;;5076183;28;20449;-73
2021/04/14 11:46:01;;;;;;;23.13;21.43;;;;;;;;;;5074876;28;20419;-73
2021/04/14 11:48:33;;;;;;;23.30;21.83;;;;;;;;;;5075844;28;20416;-73
2021/04/14 11:51:10;;;;;;;22.40;21.00;;;;;;;;;;5075458;28;20416;-73
2021/04/14 11:53:46;;;;;;;22.23;20.70;;;;;;;;;;5075968;28;20482;-73
2021/04/14 11:56:23;;;;;;;22.17;20.97;;;;;;;;;;5075556;28;20238;-73
2021/04/14 11:58:50;;;;;;;22.77;21.13;;;;;;;;;;5075968;28;20438;-73
2021/04/14 12:01:22;;;;;;;22.05;20.55;;;;;;;;;;5075685;28;20409;-77
2021/04/14 12:03:49;;;;;;;23.77;21.75;;;;;;;;;;5075006;28;20195;-75
2021/04/14 12:06:15;;;;;;;22.63;21.13;;;;;;;;;;5075456;28;20187;-78
2021/04/14 12:08:42;;;;;;;23.03;21.50;;;;;;;;;;5075727;28;20213;-75
2021/04/14 12:11:16;;;;;;;22.95;21.42;;;;;;;;;;5075316;28;20840;-75
2021/04/14 12:13:43;;;;;;;22.58;21.17;;;;;;;;;;5075714;28;20244;-75
2021/04/14 12:16:11;;;;;;;22.20;20.80;;;;;;;;;;5074372;28;20222;-73
2021/04/14 12:18:38;;;;;;;22.07;20.87;;;;;;;;;;5073121;28;20199;-73
2021/04/14 12:21:05;;;;;;;22.70;21.00;;;;;;;;;;5075022;28;20483;-74
2021/04/14 12:23:32;;;;;;;22.13;20.73;;;;;;;;;;5075417;28;20433;-74
2021/04/14 12:25:59;;;;;;;23.05;21.35;;;;;;;;;;5074645;28;20219;-74
2021/04/14 12:28:26;;;;;;;22.80;21.40;;;;;;;;;;5074856;28;20222;-74
2021/04/14 12:30:53;;;;;;;23.40;21.43;;;;;;;;;;5075201;28;20815;-73
2021/04/14 12:33:20;;;;;;;23.77;21.80;;;;;;;;;;5074898;28;20506;-74
2021/04/14 12:35:48;;;;;;;23.55;22.10;;;;;;;;;;5073718;28;20841;-74
2021/04/14 12:38:15;;;;;;;24.27;22.63;;;;;;;;;;5075239;28;20213;-74
2021/04/14 12:40:42;;;;;;;23.00;21.40;;;;;;;;;;5074507;28;20926;-74
2021/04/14 12:43:09;;;;;;;21.40;20.10;;;;;;;;;;5075888;28;20449;-74
2021/04/14 12:45:37;;;;;;;23.08;21.67;;;;;;;;;;5074642;28;20487;-74
2021/04/14 12:48:05;;;;;;;21.37;20.17;;;;;;;;;;5074684;28;20197;-74
2021/04/14 12:50:33;;;;;;;20.83;19.52;;;;;;;;;;5074692;28;20453;-74
2021/04/14 12:53:00;;;;;;;21.27;20.00;;;;;;;;;;5074891;28;20203;-74
2021/04/14 12:55:30;;;;;;;22.97;21.07;;;;;;;;;;5074537;28;20238;-74
2021/04/14 12:57:57;;;;;;;22.90;20.90;;;;;;;;;;5074769;28;20502;-74
2021/04/14 13:00:26;;;;;;;22.10;20.90;;;;;;;;;;5074761;28;20647;-73
2021/04/14 13:02:57;;;;;;;22.73;21.30;;;;;;;;;;5073523;28;20410;-74
2021/04/14 13:05:31;;;;;;;23.50;21.73;;;;;;;;;;5074370;28;20296;-74
2021/04/14 13:08:00;;;;;;;22.67;21.27;;;;;;;;;;5074424;28;20639;-73
2021/04/14 13:10:31;;;;;;;23.13;21.77;;;;;;;;;;5074638;28;20411;-74
2021/04/14 13:12:58;;;;;;;24.52;22.67;;;;;;;;;;5074259;28;20415;-74
2021/04/14 13:15:28;;;;;;;24.05;22.55;;;;;;;;;;5073387;28;20226;-73
2021/04/14 13:17:57;;;;;;;23.50;21.88;;;;;;;;;;5074020;28;20183;-73
2021/04/14 13:20:24;;;;;;;24.23;22.63;;;;;;;;;;5073984;28;20191;-73
2021/04/14 13:22:53;;;;;;;24.42;23.02;;;;;;;;;;5074267;28;20441;-74
2021/04/14 13:25:24;;;;;;;22.42;21.13;;;;;;;;;;5074356;28;20689;-73
2021/04/14 13:27:53;;;;;;;23.38;21.73;;;;;;;;;;5073781;28;20648;-74
2021/04/14 13:30:22;;;;;;;22.10;20.60;;;;;;;;;;5073835;28;20605;-74
2021/04/14 13:32:50;;;;;;;23.13;21.38;;;;;;;;;;5073815;28;20990;-73
2021/04/14 13:35:19;;;;;;;24.70;23.00;;;;;;;;;;5074144;28;20195;-74
2021/04/14 13:37:49;;;;;;;22.83;21.52;;;;;;;;;;5073654;28;20451;-73
2021/04/14 13:40:20;;;;;;;22.03;20.73;;;;;;;;;;5074130;28;20237;-73
2021/04/14 13:42:49;;;;;;;22.70;21.40;;;;;;;;;;5074407;28;20512;-74
2021/04/14 13:45:19;;;;;;;22.90;21.40;;;;;;;;;;5073574;28;20495;-73
2021/04/14 13:47:48;;;;;;;22.37;20.87;;;;;;;;;;5073931;28;20494;-74
2021/04/14 13:50:18;;;;;;;22.67;21.23;;;;;;;;;;5073587;28;20408;-74
2021/04/14 13:52:45;;;;;;;22.80;21.50;;;;;;;;;;5073896;28;20457;-74
2021/04/14 13:55:12;;;;;;;22.93;21.53;;;;;;;;;;5073290;28;20473;-73
2021/04/14 13:57:43;;;;;;;23.07;21.73;;;;;;;;;;5073593;28;20408;-74
2021/04/14 14:00:15;;;;;;;23.23;21.73;;;;;;;;;;5073533;28;20400;-74
2021/04/14 14:02:43;;;;;;;21.77;20.27;;;;;;;;;;5073823;28;20440;-74
2021/04/14 14:05:12;;;;;;;22.47;21.10;;;;;;;;;;5073560;28;20454;-73
2021/04/14 14:07:42;;;;;;;22.20;20.90;;;;;;;;;;5073612;28;20816;-74
2021/04/14 14:10:14;;;;;;;22.75;21.27;;;;;;;;;;5073804;28;20420;-73
2021/04/14 14:12:43;;;;;;;22.70;21.40;;;;;;;;;;5073446;28;20195;-73
2021/04/14 14:15:15;;;;;;;22.47;21.13;;;;;;;;;;5072683;28;20439;-72
2021/04/14 14:17:43;;;;;;;22.77;21.47;;;;;;;;;;5071730;28;20436;-73
2021/04/14 14:20:12;;;;;;;22.50;21.23;;;;;;;;;;5073577;28;20408;-74
2021/04/14 14:22:38;;;;;;;23.00;21.60;;;;;;;;;;5073320;28;20871;-74
2021/04/14 14:25:06;;;;;;;23.77;22.17;;;;;;;;;;5073277;28;20473;-73